Accueil
METAR-TAF:

METAR-TAF

Aéroports :

Maputo, Mozambique

Aéroport international de Maputo

latitude: 25-55S, longitude: 032-34E, altitude: 39 m

Observation

Le bulletin a été fait il y a 17 minutes, à 05:00 UTC
Vent 2 kt de direction variable
Température 15°C
Humidité 100%
Pression 1026 hPa
Visibilité: 6000 m
Nuages fragmentés à une hauteur de 2000 ft
brume

METAR: FQMA 260500Z VRB02KT 6000 BR BKN020 15/15 Q1026 NOSIG

Heure: 07:17 (05:17 UTC)


TAF: absent

Observations et prévisions météorologiques de plus de 4000 aéroports (messages METAR et TAF).

Les stations disponibles sont représentées par des disques jaunes et rouges sur la carte.

Passer la souris dessus pour voir le nom de la station.

Cliquer dessus pour voir les observations et prévisions météorologiques.

Pour changer de carte: cliquez sur les boutons verts avec une croix noire pour zoomer, sur le bouton vert avec un tiret pour effectuer un zoom arrière, ou sur les flèches vertes pour les cartes adjacentes.


METAR-TAF: